Time;durP1;ratioP1;P1;durP2;ratioP2;P2;SDS_P1;SDS_P2;PMS_P1;PMS_P2;Temp;Humidity;BMP_temperature;BMP_pressure;BME280_temperature;BME280_humidity;BME280_pressure;Samples;Min_cycle;Max_cycle;Signal;HPM_P1;HPM_P2
2022/01/02 00:00:17;;;;;;;11.45;4.15;;;21.30;60.40;;;;;;4970015;28;20027;-76
2022/01/02 00:02:50;;;;;;;16.02;3.20;;;21.20;60.50;;;;;;4966432;28;20035;-71
2022/01/02 00:05:22;;;;;;;8.35;2.65;;;21.30;60.70;;;;;;4967383;28;20047;-73
2022/01/02 00:08:02;;;;;;;7.57;2.10;;;21.20;60.80;;;;;;4968959;28;20031;-75
2022/01/02 00:10:34;;;;;;;7.55;3.10;;;21.20;60.70;;;;;;4966976;28;20549;-75
2022/01/02 00:13:02;;;;;;;10.23;2.60;;;21.20;60.60;;;;;;4970242;28;20030;-75
2022/01/02 00:15:29;;;;;;;5.82;1.88;;;21.20;60.70;;;;;;4969436;28;20439;-75
2022/01/02 00:18:06;;;;;;;8.90;2.30;;;21.20;60.80;;;;;;4972323;28;20030;-71
2022/01/02 00:20:35;;;;;;;7.10;2.25;;;21.20;60.90;;;;;;4971167;28;20381;-73
2022/01/02 00:23:08;;;;;;;8.27;3.15;;;21.20;60.90;;;;;;4967013;28;20126;-70
2022/01/02 00:25:40;;;;;;;9.23;2.15;;;21.20;61.00;;;;;;4974212;28;20449;-70
2022/01/02 00:28:07;;;;;;;8.98;1.73;;;21.20;61.20;;;;;;4975208;28;20027;-74
2022/01/02 00:30:34;;;;;;;6.80;2.95;;;21.20;61.30;;;;;;4972658;28;20106;-68
2022/01/02 00:33:01;;;;;;;7.90;2.08;;;21.20;61.40;;;;;;4972981;28;20030;-69
2022/01/02 00:35:28;;;;;;;13.25;2.65;;;21.20;61.50;;;;;;4974251;28;20062;-68
2022/01/02 00:37:54;;;;;;;9.38;2.20;;;21.20;61.60;;;;;;4971019;28;20058;-77
2022/01/02 00:40:21;;;;;;;7.03;1.52;;;21.20;61.60;;;;;;4974714;28;20102;-69
2022/01/02 00:42:55;;;;;;;10.32;1.98;;;21.20;61.70;;;;;;4969031;28;20095;-71
2022/01/02 00:45:28;;;;;;;6.63;1.75;;;21.20;61.70;;;;;;4970950;28;20030;-74
2022/01/02 00:48:18;;;;;;;13.40;2.08;;;21.20;61.70;;;;;;4968804;28;20022;-72
2022/01/02 00:50:56;;;;;;;11.00;2.15;;;21.20;61.70;;;;;;4970753;28;20059;-74
2022/01/02 00:53:25;;;;;;;5.63;1.85;;;21.20;61.80;;;;;;4952997;28;20580;-69
2022/01/02 00:56:01;;;;;;;7.00;1.77;;;21.20;62.00;;;;;;4968065;28;20110;-69
2022/01/02 00:59:01;;;;;;;6.32;1.80;;;21.20;62.00;;;;;;4972661;28;20027;-76
2022/01/02 01:01:34;;;;;;;9.93;2.47;;;21.20;62.00;;;;;;4914088;28;20425;-77
2022/01/02 01:04:06;;;;;;;7.78;2.55;;;21.20;61.90;;;;;;4972488;28;20110;-76
2022/01/02 01:06:33;;;;;;;8.25;2.33;;;21.20;61.80;;;;;;4967478;28;20026;-72
2022/01/02 01:09:04;;;;;;;9.48;2.55;;;21.20;61.90;;;;;;4970572;28;20030;-79
2022/01/02 01:11:31;;;;;;;14.23;2.08;;;21.20;62.10;;;;;;4974395;28;20881;-73
2022/01/02 01:14:00;;;;;;;8.48;1.92;;;21.20;62.20;;;;;;4968096;28;20023;-71
2022/01/02 01:16:26;;;;;;;8.00;2.63;;;21.20;62.20;;;;;;4970471;28;20023;-77
2022/01/02 01:18:53;;;;;;;8.30;1.67;;;21.20;62.30;;;;;;4975889;28;20018;-73
2022/01/02 01:21:20;;;;;;;9.85;2.17;;;21.20;62.30;;;;;;4972876;28;20130;-77
2022/01/02 01:23:46;;;;;;;5.93;1.92;;;21.10;62.20;;;;;;4967644;28;20375;-72
2022/01/02 01:26:16;;;;;;;5.25;1.80;;;21.10;62.30;;;;;;4971784;28;20034;-80
2022/01/02 01:28:43;;;;;;;7.07;2.65;;;21.10;62.40;;;;;;4972992;28;20885;-72
2022/01/02 01:31:09;;;;;;;8.25;1.95;;;21.00;62.50;;;;;;4972096;28;20109;-75
2022/01/02 01:33:36;;;;;;;5.63;1.65;;;21.10;62.70;;;;;;4971345;28;20272;-70
2022/01/02 01:36:02;;;;;;;7.20;1.88;;;21.10;62.80;;;;;;4973083;28;20039;-75
2022/01/02 01:38:29;;;;;;;8.15;1.50;;;21.00;62.90;;;;;;4970444;28;20541;-76
2022/01/02 01:41:01;;;;;;;6.10;1.80;;;21.00;63.00;;;;;;4968894;28;20483;-74
2022/01/02 01:43:38;;;;;;;9.52;2.35;;;21.00;63.00;;;;;;4968284;28;20070;-68
2022/01/02 01:46:05;;;;;;;6.63;1.83;;;21.00;63.10;;;;;;4968038;28;20066;-70
2022/01/02 01:48:32;;;;;;;8.07;1.63;;;21.00;63.00;;;;;;4976072;28;20035;-72
2022/01/02 01:50:59;;;;;;;10.20;2.35;;;21.10;63.00;;;;;;4974030;28;20026;-73
2022/01/02 01:53:26;;;;;;;7.65;1.52;;;21.00;63.00;;;;;;4973204;28;20058;-75
2022/01/02 01:55:55;;;;;;;5.95;1.42;;;21.00;63.10;;;;;;4965333;28;20023;-70
2022/01/02 01:58:21;;;;;;;6.43;1.90;;;21.00;63.20;;;;;;4974466;28;20093;-74
2022/01/02 02:00:48;;;;;;;15.02;3.15;;;21.00;63.30;;;;;;4972274;28;20041;-75
2022/01/02 02:03:15;;;;;;;4.78;1.73;;;21.10;63.30;;;;;;4970280;28;20026;-75
2022/01/02 02:05:43;;;;;;;6.90;1.83;;;21.00;63.30;;;;;;4962269;28;20133;-73
2022/01/02 02:08:10;;;;;;;3.72;1.33;;;21.00;63.40;;;;;;4972081;28;20066;-75
2022/01/02 02:10:45;;;;;;;3.58;1.52;;;21.00;63.40;;;;;;4965901;28;20033;-71
2022/01/02 02:13:12;;;;;;;6.32;1.27;;;21.10;63.50;;;;;;4967369;28;20026;-77
2022/01/02 02:15:38;;;;;;;5.88;1.33;;;21.00;63.50;;;;;;4965971;28;20019;-69
2022/01/02 02:18:05;;;;;;;3.00;1.00;;;21.10;63.70;;;;;;4968193;28;20036;-75
2022/01/02 02:20:36;;;;;;;6.15;1.02;;;21.10;63.70;;;;;;4966808;28;20025;-75
2022/01/02 02:23:04;;;;;;;4.85;1.58;;;21.10;63.80;;;;;;4968598;28;20089;-69
2022/01/02 02:25:34;;;;;;;7.45;1.98;;;21.10;64.00;;;;;;4938116;28;20102;-71
2022/01/02 02:28:13;;;;;;;8.55;2.28;;;21.10;64.00;;;;;;4972813;28;20470;-75
2022/01/02 02:30:43;;;;;;;7.55;1.85;;;21.10;64.10;;;;;;4966325;28;20046;-74
2022/01/02 02:33:12;;;;;;;6.75;1.77;;;21.10;64.30;;;;;;4968652;28;20085;-70
2022/01/02 02:35:41;;;;;;;11.48;2.30;;;21.10;64.40;;;;;;4967851;28;20030;-78
2022/01/02 02:38:09;;;;;;;56.15;4.90;;;21.10;64.40;;;;;;4967250;28;20081;-74
2022/01/02 02:40:37;;;;;;;22.52;4.55;;;21.10;64.90;;;;;;4969046;28;20026;-69
2022/01/02 02:51:22;;;;;;;64.30;7.32;;;21.10;65.30;;;;;;4966657;28;20291;-73
2022/01/02 02:53:51;;;;;;;45.55;5.68;;;21.10;65.30;;;;;;4970601;28;20032;-73
2022/01/02 02:56:42;;;;;;;21.08;3.45;;;21.10;65.20;;;;;;4962217;28;20418;-71
2022/01/02 02:59:11;;;;;;;21.55;3.28;;;21.00;65.10;;;;;;4972708;28;20045;-69
2022/01/02 03:01:38;;;;;;;16.88;1.90;;;21.10;65.00;;;;;;4971516;28;20027;-81
2022/01/02 03:04:05;;;;;;;20.20;2.33;;;21.00;64.90;;;;;;4970098;28;20039;-73
2022/01/02 03:06:32;;;;;;;37.35;4.70;;;21.00;64.90;;;;;;4970341;28;20031;-75
2022/01/02 03:09:06;;;;;;;22.08;3.40;;;21.00;65.20;;;;;;4966861;28;20042;-78
2022/01/02 03:11:33;;;;;;;22.05;3.05;;;21.00;65.10;;;;;;4968275;28;20469;-74
2022/01/02 03:14:00;;;;;;;23.70;3.50;;;21.00;65.00;;;;;;4969345;28;20027;-78
2022/01/02 03:16:26;;;;;;;41.75;4.10;;;21.00;64.90;;;;;;4972005;28;20034;-77
2022/01/02 03:18:54;;;;;;;41.80;5.13;;;21.00;65.10;;;;;;4973446;28;20490;-73
2022/01/02 03:21:23;;;;;;;34.05;4.40;;;21.00;65.50;;;;;;4971462;28;20035;-73
2022/01/02 03:23:49;;;;;;;36.60;3.55;;;21.00;65.50;;;;;;4972100;28;20023;-79
2022/01/02 03:26:17;;;;;;;21.10;3.72;;;21.00;65.30;;;;;;4967882;28;20410;-80
2022/01/02 03:28:44;;;;;;;9.88;1.67;;;21.00;65.30;;;;;;4972345;28;20597;-76
2022/01/02 03:31:10;;;;;;;19.02;2.88;;;20.90;65.20;;;;;;4966292;28;20022;-78
2022/01/02 03:33:37;;;;;;;36.65;4.18;;;20.90;65.10;;;;;;4972450;28;20610;-78
2022/01/02 03:36:05;;;;;;;26.85;2.72;;;20.90;65.30;;;;;;4970250;28;20065;-74
2022/01/02 03:38:32;;;;;;;23.58;3.35;;;20.90;65.30;;;;;;4969607;28;20457;-77
2022/01/02 03:40:59;;;;;;;57.55;7.55;;;20.90;65.30;;;;;;4955885;28;20473;-77
2022/01/02 03:43:26;;;;;;;34.22;4.00;;;20.80;65.50;;;;;;4971531;28;20137;-77
2022/01/02 03:45:52;;;;;;;21.88;3.42;;;20.80;65.70;;;;;;4970738;28;20035;-75
2022/01/02 03:48:19;;;;;;;20.70;2.85;;;20.80;65.60;;;;;;4973180;28;20018;-74
2022/01/02 03:50:46;;;;;;;40.25;4.90;;;20.80;65.70;;;;;;4969389;28;20023;-77
2022/01/02 03:53:13;;;;;;;46.20;4.93;;;20.80;66.00;;;;;;4957707;28;20026;-75
2022/01/02 03:55:39;;;;;;;34.72;4.78;;;20.80;66.30;;;;;;4966039;28;20446;-72
2022/01/02 03:58:06;;;;;;;16.70;3.72;;;20.70;66.30;;;;;;4964941;28;20032;-77
2022/01/02 04:00:33;;;;;;;19.48;3.97;;;20.70;66.30;;;;;;4951305;28;20378;-74
2022/01/02 04:03:01;;;;;;;108.10;12.40;;;20.80;66.40;;;;;;4973856;28;20031;-77
2022/01/02 04:05:27;;;;;;;30.02;4.93;;;20.80;68.30;;;;;;4966831;28;20481;-75
2022/01/02 04:07:54;;;;;;;39.10;7.53;;;20.70;68.40;;;;;;4978952;28;20473;-78
2022/01/02 04:10:21;;;;;;;24.10;8.77;;;20.70;68.20;;;;;;4974567;28;20109;-79
2022/01/02 04:12:47;;;;;;;13.70;5.32;;;20.60;68.00;;;;;;4972064;28;20023;-77
2022/01/02 04:15:15;;;;;;;78.60;8.70;;;20.60;67.80;;;;;;4973858;28;20358;-78
2022/01/02 04:17:42;;;;;;;29.77;4.03;;;20.60;67.90;;;;;;4965540;28;20537;-77
2022/01/02 04:20:14;;;;;;;71.78;6.93;;;20.60;67.90;;;;;;4976128;28;20552;-78
2022/01/02 04:22:42;;;;;;;63.05;7.78;;;20.70;68.30;;;;;;4966202;28;20528;-78
2022/01/02 04:25:09;;;;;;;63.50;7.28;;;20.70;68.60;;;;;;4956897;28;20569;-76
2022/01/02 04:27:36;;;;;;;59.20;7.72;;;20.70;68.70;;;;;;4972503;28;20080;-79
2022/01/02 04:30:05;;;;;;;66.15;7.47;;;20.70;68.70;;;;;;4975470;28;20050;-78
2022/01/02 04:32:31;;;;;;;37.65;4.75;;;20.70;68.80;;;;;;4975705;28;20059;-81
2022/01/02 04:34:58;;;;;;;23.80;3.22;;;20.70;68.60;;;;;;4974958;28;20018;-75
2022/01/02 04:37:25;;;;;;;16.50;4.05;;;20.80;68.50;;;;;;4965862;28;20027;-79
2022/01/02 04:39:51;;;;;;;15.05;3.40;;;20.80;68.30;;;;;;4973756;28;20015;-81
2022/01/02 04:42:18;;;;;;;14.88;3.17;;;20.80;68.00;;;;;;4975872;28;20414;-79
2022/01/02 04:44:44;;;;;;;11.35;3.35;;;20.80;67.80;;;;;;4971866;28;20040;-80
2022/01/02 04:47:11;;;;;;;28.00;4.32;;;20.80;67.70;;;;;;4968747;28;20026;-78
2022/01/02 04:49:37;;;;;;;54.63;4.78;;;20.90;67.80;;;;;;4974857;28;20070;-77
2022/01/02 04:52:04;;;;;;;22.60;4.13;;;20.90;67.80;;;;;;4972091;28;20113;-76
2022/01/02 04:54:33;;;;;;;15.70;3.15;;;21.00;67.80;;;;;;4972914;28;20093;-78
2022/01/02 04:57:00;;;;;;;31.25;6.65;;;20.90;67.70;;;;;;4971886;28;20034;-76
2022/01/02 04:59:26;;;;;;;33.20;10.90;;;21.00;67.80;;;;;;4980315;28;20351;-77
2022/01/02 05:01:53;;;;;;;28.73;12.45;;;21.00;67.80;;;;;;4970430;28;20042;-78
2022/01/02 05:04:19;;;;;;;39.33;13.35;;;21.00;67.70;;;;;;4969892;28;20046;-75
2022/01/02 05:06:46;;;;;;;24.02;7.13;;;21.00;67.50;;;;;;4965833;28;20397;-77
2022/01/02 05:09:14;;;;;;;21.65;5.57;;;21.10;67.30;;;;;;4970874;28;20465;-77
2022/01/02 05:11:42;;;;;;;12.63;3.60;;;21.10;67.00;;;;;;4955368;28;20043;-74
2022/01/02 05:14:08;;;;;;;9.30;4.05;;;21.20;66.80;;;;;;4969956;28;20023;-74
2022/01/02 05:16:35;;;;;;;7.28;2.90;;;21.20;66.60;;;;;;4968212;28;20031;-79
2022/01/02 05:19:01;;;;;;;8.80;2.50;;;21.20;66.40;;;;;;4969386;28;20537;-78
2022/01/02 05:21:28;;;;;;;10.75;2.30;;;21.30;66.20;;;;;;4969111;28;20055;-73
2022/01/02 05:23:54;;;;;;;6.88;1.52;;;21.30;65.90;;;;;;4971194;28;20030;-78
2022/01/02 05:26:23;;;;;;;5.75;1.70;;;21.30;65.70;;;;;;4965721;28;20497;-76
2022/01/02 05:28:50;;;;;;;6.65;1.80;;;21.40;65.50;;;;;;4953849;28;20522;-76
2022/01/02 05:31:25;;;;;;;5.53;1.48;;;21.40;65.30;;;;;;4967793;28;20035;-78
2022/01/02 05:33:54;;;;;;;12.15;2.25;;;21.40;65.10;;;;;;4964937;28;20042;-75
2022/01/02 05:36:22;;;;;;;7.53;1.67;;;21.40;64.90;;;;;;4963535;28;20410;-75
2022/01/02 05:38:49;;;;;;;16.70;3.15;;;21.40;64.80;;;;;;4967969;28;20081;-76
2022/01/02 05:41:16;;;;;;;9.60;2.03;;;21.50;64.80;;;;;;4967294;28;20034;-77
2022/01/02 05:43:42;;;;;;;8.38;2.00;;;21.50;64.80;;;;;;4967953;28;20035;-76
2022/01/02 05:46:09;;;;;;;8.80;1.90;;;21.50;64.70;;;;;;4971176;28;20054;-77
2022/01/02 05:48:36;;;;;;;7.28;2.35;;;21.50;64.60;;;;;;4969670;28;20023;-75
2022/01/02 05:51:04;;;;;;;8.63;2.35;;;21.60;64.50;;;;;;4969467;28;20649;-76
2022/01/02 05:53:32;;;;;;;65.95;5.28;;;21.60;64.40;;;;;;4968195;28;20110;-77
2022/01/02 05:55:59;;;;;;;4.93;1.90;;;21.60;64.30;;;;;;4970218;28;20115;-72
2022/01/02 05:58:25;;;;;;;8.52;2.78;;;21.60;64.20;;;;;;4968478;28;20592;-76
2022/01/02 06:00:53;;;;;;;19.42;5.75;;;21.70;64.20;;;;;;4967416;28;20023;-75
2022/01/02 06:03:20;;;;;;;21.08;5.72;;;21.70;64.10;;;;;;4967872;28;20098;-78
2022/01/02 06:05:47;;;;;;;27.80;5.28;;;21.70;64.10;;;;;;4966034;28;20038;-74
2022/01/02 06:08:13;;;;;;;16.30;5.43;;;21.70;64.10;;;;;;4968784;28;20552;-76
2022/01/02 06:10:40;;;;;;;18.77;3.80;;;21.70;64.00;;;;;;4969214;28;20912;-75
2022/01/02 06:13:07;;;;;;;27.15;4.38;;;21.70;63.90;;;;;;4971236;28;20037;-75
2022/01/02 06:15:33;;;;;;;27.20;4.95;;;21.70;63.90;;;;;;4957763;28;20031;-74
2022/01/02 06:18:00;;;;;;;26.35;4.68;;;21.80;64.00;;;;;;4970362;28;20379;-75
2022/01/02 06:20:27;;;;;;;14.63;3.17;;;21.80;63.90;;;;;;4973214;28;20110;-74
2022/01/02 06:22:54;;;;;;;10.10;2.70;;;21.80;63.80;;;;;;4972497;28;20133;-76
2022/01/02 06:25:21;;;;;;;15.43;2.47;;;21.80;63.70;;;;;;4971823;28;20046;-74
2022/01/02 06:27:50;;;;;;;21.77;2.80;;;21.80;63.70;;;;;;4969518;28;20039;-76
2022/01/02 06:30:18;;;;;;;8.18;2.25;;;21.80;63.70;;;;;;4973339;28;20908;-74
2022/01/02 06:32:45;;;;;;;23.60;4.68;;;21.90;63.60;;;;;;4970374;28;20035;-75
2022/01/02 06:35:12;;;;;;;28.55;5.53;;;21.90;63.90;;;;;;4968579;28;20034;-77
2022/01/02 06:37:40;;;;;;;34.63;5.03;;;22.00;64.10;;;;;;4971733;28;20045;-76
2022/01/02 06:40:07;;;;;;;33.63;5.95;;;22.00;64.50;;;;;;4966046;28;20475;-77
2022/01/02 06:42:33;;;;;;;51.33;14.27;;;22.00;64.60;;;;;;4969070;28;20035;-77
2022/01/02 06:45:03;;;;;;;44.88;10.65;;;22.00;64.60;;;;;;4970886;28;20085;-77
2022/01/02 06:47:29;;;;;;;84.32;28.88;;;22.10;64.60;;;;;;4971591;28;20037;-74
2022/01/02 06:49:56;;;;;;;68.35;15.85;;;22.10;64.40;;;;;;4961995;28;20026;-75
2022/01/02 06:52:22;;;;;;;79.25;12.93;;;22.10;64.40;;;;;;4969614;28;20023;-75
2022/01/02 06:54:53;;;;;;;92.10;14.02;;;22.20;64.40;;;;;;4971985;28;20029;-75
2022/01/02 06:57:20;;;;;;;61.15;11.18;;;22.30;64.50;;;;;;4969835;28;20898;-76
2022/01/02 06:59:47;;;;;;;34.15;6.78;;;22.30;64.10;;;;;;4968912;28;20027;-77
2022/01/02 07:02:14;;;;;;;68.20;10.98;;;22.30;63.90;;;;;;4965907;28;20026;-76
2022/01/02 07:04:42;;;;;;;61.88;8.98;;;22.30;63.80;;;;;;4964424;28;20054;-76
2022/01/02 07:07:09;;;;;;;30.40;6.38;;;22.40;63.80;;;;;;4966071;28;20035;-76
2022/01/02 07:09:36;;;;;;;32.25;5.97;;;22.40;63.90;;;;;;4973175;28;20066;-74
2022/01/02 07:12:04;;;;;;;19.42;4.93;;;22.50;64.20;;;;;;4948327;28;20121;-74
2022/01/02 07:14:30;;;;;;;49.38;7.53;;;22.50;63.00;;;;;;4969611;28;20017;-73
2022/01/02 07:16:58;;;;;;;32.08;5.63;;;22.50;62.70;;;;;;4973095;28;20061;-75
2022/01/02 07:19:25;;;;;;;83.93;10.20;;;22.60;62.10;;;;;;4970567;28;20031;-75
2022/01/02 07:21:53;;;;;;;39.65;6.05;;;22.60;62.20;;;;;;4968902;28;20082;-74
2022/01/02 07:24:20;;;;;;;46.95;6.90;;;22.70;62.00;;;;;;4971499;28;20034;-74
2022/01/02 07:26:47;;;;;;;82.63;10.27;;;22.70;61.50;;;;;;4970693;28;20033;-75
2022/01/02 07:29:15;;;;;;;141.38;14.95;;;22.70;61.20;;;;;;4971865;28;20022;-76
2022/01/02 07:31:42;;;;;;;123.50;11.60;;;22.70;61.10;;;;;;4964340;28;20015;-75
2022/01/02 07:34:09;;;;;;;80.97;11.63;;;22.70;60.90;;;;;;4962166;28;20035;-75
2022/01/02 07:36:38;;;;;;;190.70;18.98;;;22.70;60.50;;;;;;4968455;28;20026;-72
2022/01/02 07:39:04;;;;;;;127.85;13.88;;;22.80;60.70;;;;;;4968781;28;20101;-76
2022/01/02 07:41:31;;;;;;;106.88;16.88;;;22.80;61.00;;;;;;4971387;28;20550;-77
2022/01/02 07:43:58;;;;;;;123.60;17.70;;;22.80;60.80;;;;;;4967631;28;20031;-75
2022/01/02 07:46:25;;;;;;;131.35;16.70;;;22.90;60.90;;;;;;4968903;28;20109;-75
2022/01/02 07:48:52;;;;;;;126.47;14.82;;;22.90;60.90;;;;;;4965807;28;20035;-74
2022/01/02 07:51:18;;;;;;;99.72;13.88;;;22.90;60.60;;;;;;4970401;28;20034;-76
2022/01/02 07:53:45;;;;;;;110.97;13.63;;;23.00;60.50;;;;;;4970649;28;20031;-73
2022/01/02 07:56:11;;;;;;;66.68;8.80;;;23.00;60.30;;;;;;4971069;28;20041;-75
2022/01/02 07:58:39;;;;;;;38.67;5.40;;;23.10;61.10;;;;;;4970496;28;20027;-74
2022/01/02 08:01:06;;;;;;;35.83;4.88;;;23.10;61.40;;;;;;4970953;28;20028;-73
2022/01/02 08:03:32;;;;;;;22.70;5.10;;;23.20;61.30;;;;;;4965236;28;20027;-74
2022/01/02 08:05:59;;;;;;;42.47;6.45;;;23.20;60.90;;;;;;4970334;28;20047;-73
2022/01/02 08:08:27;;;;;;;41.90;7.30;;;23.20;60.90;;;;;;4970123;28;20042;-77
2022/01/02 08:10:54;;;;;;;37.10;5.60;;;23.30;61.00;;;;;;4970421;28;20030;-73
2022/01/02 08:13:20;;;;;;;15.70;4.28;;;23.30;60.20;;;;;;4954235;28;20536;-72
2022/01/02 08:15:49;;;;;;;25.10;3.53;;;23.40;59.70;;;;;;4967183;28;20081;-74
2022/01/02 08:18:16;;;;;;;13.57;3.90;;;23.40;59.60;;;;;;4969726;28;20054;-74
2022/01/02 08:20:45;;;;;;;39.70;6.00;;;23.50;60.00;;;;;;4966572;28;20079;-74
2022/01/02 08:23:13;;;;;;;25.20;5.78;;;23.50;60.30;;;;;;4968961;28;20038;-77
2022/01/02 08:25:40;;;;;;;22.25;4.35;;;23.50;60.10;;;;;;4966077;28;20042;-73
2022/01/02 08:28:06;;;;;;;20.42;3.95;;;23.50;59.70;;;;;;4971762;28;20027;-75
2022/01/02 08:30:33;;;;;;;16.60;4.20;;;23.50;59.70;;;;;;4967348;28;20028;-77
2022/01/02 08:33:00;;;;;;;9.85;3.30;;;23.60;59.90;;;;;;4970307;28;20059;-74
2022/01/02 08:35:27;;;;;;;12.27;4.18;;;23.60;59.80;;;;;;4971359;28;20061;-72
2022/01/02 08:37:56;;;;;;;9.55;3.28;;;23.60;59.60;;;;;;4970925;28;20089;-77
2022/01/02 08:40:24;;;;;;;9.27;3.90;;;23.70;60.20;;;;;;4968205;28;20027;-75
2022/01/02 08:42:50;;;;;;;12.23;3.78;;;23.70;59.30;;;;;;4969337;28;20110;-74
2022/01/02 08:45:17;;;;;;;10.82;3.05;;;23.70;59.00;;;;;;4973414;28;20053;-73
2022/01/02 08:47:43;;;;;;;12.52;3.25;;;23.80;58.80;;;;;;4973381;28;20027;-77
2022/01/02 08:50:10;;;;;;;15.05;3.55;;;23.80;58.80;;;;;;4973632;28;20030;-75
2022/01/02 08:52:36;;;;;;;37.05;7.18;;;23.90;58.70;;;;;;4970388;28;20058;-74
2022/01/02 08:55:04;;;;;;;16.42;4.88;;;23.90;58.50;;;;;;4971948;28;20030;-75
2022/01/02 08:57:31;;;;;;;21.70;5.57;;;23.90;58.30;;;;;;4970136;28;20129;-75
2022/01/02 08:59:57;;;;;;;15.45;4.05;;;24.00;58.10;;;;;;4971654;28;20032;-76
2022/01/02 09:02:24;;;;;;;17.42;5.50;;;24.00;57.80;;;;;;4970801;28;20027;-74
2022/01/02 09:04:50;;;;;;;13.02;4.53;;;24.00;57.80;;;;;;4974718;28;20085;-73
2022/01/02 09:07:17;;;;;;;16.70;5.07;;;24.00;57.60;;;;;;4967838;28;20027;-73
2022/01/02 09:09:43;;;;;;;16.77;4.45;;;24.00;57.50;;;;;;4975643;28;20031;-77
2022/01/02 09:12:12;;;;;;;17.42;3.88;;;24.00;57.80;;;;;;4975096;28;20561;-73
2022/01/02 09:14:38;;;;;;;15.52;4.22;;;24.10;57.80;;;;;;4968974;28;20043;-73
2022/01/02 09:17:05;;;;;;;14.45;4.07;;;24.10;57.70;;;;;;4972135;28;20060;-73
2022/01/02 09:19:31;;;;;;;17.42;5.53;;;24.10;57.60;;;;;;4971466;28;20054;-74
2022/01/02 09:21:58;;;;;;;18.17;4.57;;;24.10;57.60;;;;;;4975082;28;20050;-76
2022/01/02 09:24:24;;;;;;;34.15;5.53;;;24.10;58.20;;;;;;4974559;28;20027;-74
2022/01/02 09:26:51;;;;;;;14.93;4.20;;;24.10;58.70;;;;;;4973758;28;20019;-77
2022/01/02 09:29:17;;;;;;;33.70;6.03;;;24.20;58.60;;;;;;4973849;28;20029;-74
2022/01/02 09:31:44;;;;;;;22.67;5.55;;;24.20;58.10;;;;;;4968616;28;20031;-76
2022/01/02 09:34:11;;;;;;;15.05;4.55;;;24.20;58.70;;;;;;4968029;28;20030;-76
2022/01/02 09:36:38;;;;;;;18.98;4.78;;;24.30;58.50;;;;;;4957392;28;20122;-74
2022/01/02 09:39:05;;;;;;;17.35;4.30;;;24.30;58.60;;;;;;4966821;28;20035;-75
2022/01/02 09:41:32;;;;;;;21.88;5.45;;;24.30;57.80;;;;;;4967551;28;20056;-73
2022/01/02 09:44:00;;;;;;;15.70;4.43;;;24.40;57.20;;;;;;4967940;28;20029;-76
2022/01/02 09:46:28;;;;;;;15.20;6.18;;;24.40;57.40;;;;;;4972004;28;20046;-73
2022/01/02 09:48:55;;;;;;;16.75;4.65;;;24.50;57.50;;;;;;4970939;28;20023;-76
2022/01/02 09:51:27;;;;;;;25.92;5.18;;;24.50;57.10;;;;;;4969160;28;20030;-75
2022/01/02 09:53:55;;;;;;;23.85;4.90;;;24.60;57.00;;;;;;4972746;28;20030;-75
2022/01/02 09:56:23;;;;;;;48.67;7.07;;;24.60;57.00;;;;;;4955113;28;20039;-73
2022/01/02 09:58:50;;;;;;;21.33;4.65;;;24.60;56.40;;;;;;4973356;28;20042;-76
2022/01/02 10:01:19;;;;;;;27.15;6.88;;;24.70;56.30;;;;;;4971208;28;20026;-75
2022/01/02 10:03:57;;;;;;;14.32;6.18;;;24.70;56.30;;;;;;4972715;28;20027;-74
2022/01/02 10:06:39;;;;;;;16.77;5.85;;;24.80;55.90;;;;;;4968796;28;20072;-73
2022/01/02 10:09:10;;;;;;;15.52;4.47;;;24.90;56.30;;;;;;4972552;28;20038;-76
2022/01/02 10:11:40;;;;;;;15.68;4.93;;;25.00;56.30;;;;;;4964663;28;20045;-75
2022/01/02 10:14:10;;;;;;;11.35;3.60;;;25.00;55.90;;;;;;4973166;28;20450;-76
2022/01/02 10:16:40;;;;;;;11.70;4.07;;;25.10;55.20;;;;;;4958510;28;20026;-73
2022/01/02 10:19:29;;;;;;;24.05;7.13;;;25.10;55.10;;;;;;4975667;28;20120;-75
2022/01/02 10:22:06;;;;;;;24.75;6.45;;;25.20;55.40;;;;;;4971268;28;20053;-76
2022/01/02 10:24:40;;;;;;;18.77;5.55;;;25.30;55.10;;;;;;4966541;28;20569;-75
2022/01/02 10:27:19;;;;;;;23.17;5.60;;;25.30;54.90;;;;;;4973456;28;20062;-74
2022/01/02 10:30:00;;;;;;;22.48;6.90;;;25.30;54.80;;;;;;4971437;28;20109;-76
2022/01/02 10:32:41;;;;;;;47.20;6.55;;;25.40;54.60;;;;;;4956126;28;20501;-76
2022/01/02 10:35:23;;;;;;;22.60;5.38;;;25.40;54.50;;;;;;4971070;28;20031;-74
2022/01/02 10:37:54;;;;;;;26.20;6.55;;;25.50;54.50;;;;;;4966785;28;20031;-73
2022/01/02 10:40:32;;;;;;;20.83;5.90;;;25.50;54.40;;;;;;4968724;28;20058;-73
2022/01/02 10:43:21;;;;;;;13.40;5.15;;;25.50;53.90;;;;;;4971051;28;20023;-76
2022/01/02 10:45:50;;;;;;;30.00;7.10;;;25.60;53.50;;;;;;4954767;28;20050;-72
2022/01/02 10:48:29;;;;;;;36.65;8.45;;;25.60;53.30;;;;;;4965384;28;20047;-72
2022/01/02 10:51:05;;;;;;;34.20;6.82;;;25.60;53.20;;;;;;4971423;28;20027;-72
2022/01/02 10:53:34;;;;;;;20.35;5.75;;;25.60;53.30;;;;;;4972791;28;20482;-74
2022/01/02 10:56:02;;;;;;;30.75;7.25;;;25.60;53.60;;;;;;4969197;28;20538;-72
2022/01/02 10:58:29;;;;;;;17.58;5.65;;;25.60;53.90;;;;;;4950856;28;20063;-72
2022/01/02 11:01:06;;;;;;;24.92;5.63;;;25.60;53.50;;;;;;4968495;28;20031;-72
2022/01/02 11:03:33;;;;;;;16.20;5.10;;;25.60;52.90;;;;;;4969018;28;20468;-72
2022/01/02 11:06:07;;;;;;;14.43;4.78;;;25.70;53.00;;;;;;4970792;28;20039;-72
2022/01/02 11:08:35;;;;;;;18.58;5.68;;;25.60;52.50;;;;;;4963214;28;20435;-72
2022/01/02 11:11:03;;;;;;;13.05;5.55;;;25.70;52.40;;;;;;4970375;28;20612;-71
2022/01/02 11:13:31;;;;;;;16.15;5.32;;;25.70;52.30;;;;;;4966600;28;20026;-71
2022/01/02 11:16:03;;;;;;;13.82;5.22;;;25.80;52.40;;;;;;4970392;28;20023;-72
2022/01/02 11:18:34;;;;;;;16.10;6.25;;;25.80;51.80;;;;;;4968054;28;20382;-71
2022/01/02 11:21:10;;;;;;;17.35;5.20;;;25.90;52.10;;;;;;4971470;28;20097;-72
2022/01/02 11:23:44;;;;;;;15.40;6.00;;;25.90;51.90;;;;;;4967144;28;20054;-72
2022/01/02 11:26:43;;;;;;;21.20;5.80;;;26.00;52.00;;;;;;4968023;28;20038;-72
2022/01/02 11:29:10;;;;;;;17.27;5.45;;;26.00;52.60;;;;;;4958889;28;20414;-71
2022/01/02 11:31:59;;;;;;;19.52;5.15;;;26.10;51.80;;;;;;4969379;28;20060;-72
2022/01/02 11:34:36;;;;;;;15.95;4.68;;;26.20;52.50;;;;;;4968675;28;20034;-71
2022/01/02 11:37:12;;;;;;;15.15;5.30;;;26.30;53.00;;;;;;4968494;28;20042;-73
2022/01/02 11:40:02;;;;;;;15.40;4.80;;;26.40;51.90;;;;;;4968624;28;20050;-72
2022/01/02 11:42:38;;;;;;;19.58;6.90;;;26.40;51.20;;;;;;4967752;28;20035;-71
2022/01/02 11:45:07;;;;;;;15.13;6.43;;;26.40;51.30;;;;;;4969703;28;20043;-71
2022/01/02 11:47:47;;;;;;;18.13;5.55;;;26.50;51.80;;;;;;4966226;28;20061;-71
2022/01/02 11:50:36;;;;;;;14.90;5.75;;;26.60;51.30;;;;;;4969641;28;20030;-71
2022/01/02 11:53:18;;;;;;;16.17;8.45;;;26.70;51.70;;;;;;4966739;28;20033;-71
2022/01/02 11:55:46;;;;;;;8.90;5.95;;;26.70;51.60;;;;;;4966851;28;20505;-71
2022/01/02 11:58:13;;;;;;;16.65;8.07;;;26.90;49.90;;;;;;4958601;28;20105;-71
2022/01/02 12:00:51;;;;;;;22.23;7.95;;;26.90;50.30;;;;;;4966527;28;20023;-71
2022/01/02 12:03:56;;;;;;;29.85;8.00;;;27.00;49.90;;;;;;4968545;28;20030;-71
2022/01/02 12:06:33;;;;;;;18.42;7.78;;;27.10;50.90;;;;;;4908077;29;20040;-71
2022/01/02 12:09:02;;;;;;;21.65;9.25;;;27.10;50.50;;;;;;4906497;29;20107;-71
2022/01/02 12:11:31;;;;;;;17.13;7.68;;;27.00;49.90;;;;;;4935408;28;20536;-71
2022/01/02 12:14:06;;;;;;;19.42;6.13;;;27.10;50.60;;;;;;4970239;28;20034;-70
2022/01/02 12:16:41;;;;;;;16.48;6.53;;;27.20;48.80;;;;;;4967367;28;20098;-70
2022/01/02 12:19:09;;;;;;;11.35;4.32;;;27.40;47.40;;;;;;4971626;28;20026;-71
2022/01/02 12:21:37;;;;;;;15.32;5.43;;;27.50;46.90;;;;;;4972830;28;20045;-71
2022/01/02 12:24:12;;;;;;;11.02;4.80;;;27.60;46.60;;;;;;4957664;28;20035;-73
2022/01/02 12:26:39;;;;;;;11.57;3.75;;;27.70;46.80;;;;;;4970219;28;20035;-71
2022/01/02 12:29:10;;;;;;;32.90;27.88;;;27.70;45.50;;;;;;4969841;28;20022;-73
2022/01/02 12:31:40;;;;;;;16.67;5.80;;;27.80;45.00;;;;;;4972298;28;20019;-75
2022/01/02 12:34:17;;;;;;;15.23;5.10;;;27.80;45.10;;;;;;4973600;28;20033;-75
2022/01/02 12:36:49;;;;;;;12.55;4.45;;;27.80;44.70;;;;;;4972070;28;20038;-74
2022/01/02 12:39:24;;;;;;;17.85;5.57;;;27.90;45.50;;;;;;4971101;28;20018;-74
2022/01/02 12:41:51;;;;;;;17.02;5.60;;;27.90;45.70;;;;;;4972411;28;20606;-74
2022/01/02 12:44:31;;;;;;;11.57;3.92;;;28.00;45.60;;;;;;4969937;28;20078;-74
2022/01/02 12:47:00;;;;;;;11.52;4.57;;;28.00;45.60;;;;;;4966852;28;20030;-74
2022/01/02 12:49:29;;;;;;;16.40;5.68;;;27.90;45.90;;;;;;4972681;28;20093;-74
2022/01/02 12:52:02;;;;;;;13.98;3.65;;;27.80;46.00;;;;;;4967809;28;20061;-71
2022/01/02 12:54:31;;;;;;;13.82;5.25;;;27.60;46.20;;;;;;4968950;28;20749;-75
2022/01/02 12:57:05;;;;;;;13.98;6.22;;;27.60;46.50;;;;;;4969262;28;20035;-75